Johnson City, TN

7:35 AM EST on February 20, 2017 (GMT -0500)
Johnson City East Side | | Change Station

Elev 1644 ft 36.34 °N, 82.35 °W | Updated 17 seconds ago

Partly Cloudy
Partly Cloudy
35.6 °F
Feels Like 36 °F
N
0.0
Wind Variable Wind from WNW
Gusts 0.0 mph

Today
High -- | Low -- °F
--% Chance of Precip.
Yesterday
High -- | Low -- °F
Precip. -- in
Pressure 30.21 in
Visibility 0.2 miles
Clouds
Windchill 36 °F
Dew Point 25 °F
Humidity 65%
Rainfall 0.00 in
Snow Depth Not available.
7:10 AM 6:15 PM
Waning Crescent, 34% visible
METAR KTRI 201153Z 00000KT 1/4SM FG VV003 01/01 A3023 RMK AO2 TWR VIS 2 SLP229 I6000 T00110006 10039 20000 53007
Pressure 30.21 in
Visibility 0.2 miles
Clouds
Windchill 36 °F
Dew Point 25 °F
Humidity 65%
Rainfall 0.00 in
Snow Depth Not available.
7:10 AM 6:15 PM
Waning Crescent, 34% visible
METAR KTRI 201153Z 00000KT 1/4SM FG VV003 01/01 A3023 RMK AO2 TWR VIS 2 SLP229 I6000 T00110006 10039 20000 53007

Get Your Daily Forecast Email!

Thanks for signing up!

Be on the lookout for a verification email in your inbox.

You'll start receiving the daily forecast at 8 AM.

×

10-Day Weather Forecast

Almanac

Astronomy

Feb. 20, 2017 Rise Set
Actual Time
Civil Twilight
Nautical Twilight
Astronomical Twilight
Moon
Length of Visible Light
Length of Day
Tomorrow will be .
, % of the Moon is Illuminated

Today's Extremes

State Highs State Lows

Community

WunderPhotos

Upload Photos

1,962,540 photos uploaded!

WunderBlog® & News

Nearby

Air Quality

  Air Quality AQ Index Pollutant
Not available.

Snow Depth

Station Depth Elevation

Earthquake Activity

City Distance Mag. Time & Date
Minimum magnitude displayed is 2.5.

Coastal Water Temperatures

Place Temperature

Stations

Nearby Weather Stations

Station Location Temp. Windchill Dew Point Humidity Wind Precip. Elev Updated Type
                   

Watches & Warnings

There are currently no watches in effect.